createdAt,value
2018-09-05T00:01:49.269Z,61.76
2018-09-05T00:04:17.115Z,60.92
2018-09-05T00:06:44.843Z,61.51
2018-09-05T00:09:12.595Z,61.34
2018-09-05T00:11:40.411Z,60.34
2018-09-05T00:14:08.550Z,61.12
2018-09-05T00:16:36.297Z,59.23
2018-09-05T00:19:04.206Z,60.95
2018-09-05T00:21:32.011Z,63.44
2018-09-05T00:23:59.786Z,64.54
2018-09-05T00:26:27.631Z,65.49
2018-09-05T00:28:55.393Z,64.25
2018-09-05T00:31:23.233Z,65.40
2018-09-05T00:33:51.115Z,65.83
2018-09-05T00:36:18.921Z,68.73
2018-09-05T00:38:46.714Z,69.97
2018-09-05T00:41:14.433Z,71.15
2018-09-05T00:43:42.147Z,72.58
2018-09-05T00:48:36.953Z,76.11
2018-09-05T00:51:04.854Z,78.38
2018-09-05T00:53:32.599Z,80.01
2018-09-05T00:56:00.375Z,81.39
2018-09-05T00:58:28.147Z,81.50
2018-09-05T01:00:55.923Z,81.55
2018-09-05T01:03:23.700Z,80.41
2018-09-05T01:05:51.354Z,81.02
2018-09-05T01:08:19.009Z,80.85
2018-09-05T01:10:46.697Z,81.12
2018-09-05T01:13:14.370Z,81.41
2018-09-05T01:15:42.158Z,81.89
2018-09-05T01:18:09.846Z,81.90
2018-09-05T01:20:37.595Z,81.03
2018-09-05T01:23:05.270Z,81.43
2018-09-05T01:25:32.977Z,80.66
2018-09-05T01:28:00.622Z,81.00
2018-09-05T01:30:28.842Z,80.48
2018-09-05T01:32:57.809Z,80.47
2018-09-05T01:35:25.561Z,80.08
2018-09-05T01:37:53.367Z,79.73
2018-09-05T01:40:21.086Z,78.44
2018-09-05T01:42:48.785Z,79.20
2018-09-05T01:45:16.461Z,78.83
2018-09-05T01:47:44.166Z,77.99
2018-09-05T01:50:11.898Z,77.68
2018-09-05T01:52:39.565Z,76.60
2018-09-05T01:55:07.312Z,77.59
2018-09-05T01:57:34.971Z,77.10
2018-09-05T02:00:02.754Z,76.25
2018-09-05T02:02:30.461Z,75.76
2018-09-05T02:04:58.231Z,75.97
2018-09-05T02:07:25.919Z,75.80
2018-09-05T02:09:53.642Z,75.88
2018-09-05T02:12:21.345Z,76.30
2018-09-05T02:14:49.032Z,76.09
2018-09-05T02:17:16.748Z,76.59
2018-09-05T02:19:44.421Z,75.51
2018-09-05T02:22:12.100Z,77.49
2018-09-05T02:24:39.828Z,77.50
2018-09-05T02:27:07.801Z,77.77
2018-09-05T02:29:35.449Z,77.16
2018-09-05T02:32:03.316Z,78.52
2018-09-05T02:34:30.997Z,79.76
2018-09-05T02:36:58.686Z,78.84
2018-09-05T02:39:26.374Z,78.50
2018-09-05T02:41:54.059Z,77.67
2018-09-05T02:44:23.175Z,78.19
2018-09-05T02:46:51.337Z,76.93
2018-09-05T02:49:19.041Z,77.57
2018-09-05T02:51:46.954Z,77.60
2018-09-05T02:54:14.629Z,77.52
2018-09-05T02:56:42.314Z,77.21
2018-09-05T02:59:10.006Z,76.50
2018-09-05T03:01:37.735Z,76.11
2018-09-05T03:04:05.588Z,76.00
2018-09-05T03:06:33.242Z,75.53
2018-09-05T03:09:00.939Z,76.20
2018-09-05T03:11:28.620Z,75.95
2018-09-05T03:13:56.298Z,74.97
2018-09-05T03:16:23.984Z,75.63
2018-09-05T03:18:51.886Z,75.69
2018-09-05T03:21:19.715Z,75.24
2018-09-05T03:23:47.400Z,76.22
2018-09-05T03:26:15.094Z,76.06
2018-09-05T03:28:42.747Z,76.78
2018-09-05T03:31:10.434Z,76.73
2018-09-05T03:33:38.181Z,76.86
2018-09-05T03:36:05.857Z,76.01
2018-09-05T03:38:33.555Z,75.81
2018-09-05T03:41:01.233Z,76.12
2018-09-05T03:43:28.907Z,76.90
2018-09-05T03:46:02.130Z,77.11
2018-09-05T03:48:29.781Z,76.68
2018-09-05T03:50:57.434Z,76.67
2018-09-05T03:53:26.291Z,76.48
2018-09-05T03:55:54.520Z,76.21
2018-09-05T03:58:22.247Z,76.02
2018-09-05T04:00:49.970Z,75.82
2018-09-05T04:03:17.636Z,76.44
2018-09-05T04:05:45.322Z,77.11
2018-09-05T04:08:13.038Z,77.42
2018-09-05T04:10:40.825Z,76.78
2018-09-05T04:13:08.497Z,76.05
2018-09-05T04:15:36.204Z,74.14
2018-09-05T04:18:03.880Z,74.63
2018-09-05T04:20:31.594Z,74.65
2018-09-05T04:22:59.290Z,74.62
2018-09-05T04:25:26.959Z,75.34
2018-09-05T04:27:54.644Z,74.56
2018-09-05T04:30:22.391Z,73.94
2018-09-05T04:32:50.073Z,73.18
2018-09-05T04:35:17.830Z,73.46
2018-09-05T04:37:45.534Z,73.97
2018-09-05T04:40:13.279Z,73.42
2018-09-05T04:42:40.989Z,72.82
2018-09-05T04:45:08.745Z,72.69
2018-09-05T04:47:36.786Z,73.34
2018-09-05T04:50:04.749Z,72.11
2018-09-05T04:52:32.536Z,73.53
2018-09-05T04:55:00.157Z,73.42
2018-09-05T04:57:27.841Z,73.85
2018-09-05T04:59:55.518Z,73.12
2018-09-05T05:02:23.299Z,74.01
2018-09-05T05:04:51.078Z,72.99
2018-09-05T05:07:18.762Z,72.89
2018-09-05T05:09:46.454Z,72.68
2018-09-05T05:12:14.112Z,71.71
2018-09-05T05:14:41.817Z,72.50
2018-09-05T05:17:09.483Z,72.07
2018-09-05T05:19:37.195Z,71.06
2018-09-05T05:22:05.110Z,70.86
2018-09-05T05:24:32.804Z,71.52
2018-09-05T05:27:00.501Z,71.94
2018-09-05T05:29:28.265Z,70.54
2018-09-05T05:31:55.945Z,71.02
2018-09-05T05:34:23.704Z,71.64
2018-09-05T05:36:51.416Z,70.57
2018-09-05T05:39:19.049Z,70.80
2018-09-05T05:41:46.710Z,69.49
2018-09-05T05:44:14.467Z,67.63
2018-09-05T05:46:42.251Z,67.15
2018-09-05T05:49:09.859Z,66.87
2018-09-05T05:51:37.582Z,64.92
2018-09-05T05:54:05.401Z,63.36
2018-09-05T05:56:33.102Z,60.80
2018-09-05T05:59:00.800Z,60.08
2018-09-05T06:01:28.458Z,59.48
2018-09-05T06:03:56.125Z,60.34
2018-09-05T06:06:23.977Z,59.31
2018-09-05T06:08:51.554Z,56.71
2018-09-05T06:11:19.243Z,54.16
2018-09-05T06:13:46.985Z,53.32
2018-09-05T06:16:14.630Z,54.41
2018-09-05T06:18:42.305Z,55.80
2018-09-05T06:21:10.137Z,57.10
2018-09-05T06:23:37.747Z,60.50
2018-09-05T06:26:05.657Z,58.92
2018-09-05T06:28:33.398Z,59.94
2018-09-05T06:31:01.151Z,61.53
2018-09-05T06:33:28.758Z,58.89
2018-09-05T06:35:56.453Z,55.98
2018-09-05T06:38:24.113Z,53.05
2018-09-05T06:40:51.767Z,49.03
2018-09-05T06:43:19.479Z,46.32
2018-09-05T06:45:47.134Z,45.72
2018-09-05T06:48:14.881Z,47.20
2018-09-05T06:50:42.570Z,46.95
2018-09-05T06:53:10.225Z,47.56
2018-09-05T06:55:37.898Z,50.44
2018-09-05T06:58:05.725Z,49.71
2018-09-05T07:00:33.500Z,48.69
2018-09-05T07:03:01.265Z,46.99
2018-09-05T07:05:29.068Z,46.85
2018-09-05T07:07:56.781Z,47.66
2018-09-05T07:10:24.468Z,47.37
2018-09-05T07:12:52.162Z,46.90
2018-09-05T07:15:19.826Z,45.67
2018-09-05T07:17:47.514Z,46.70
2018-09-05T07:20:15.245Z,46.41
2018-09-05T07:22:42.975Z,47.20
2018-09-05T07:25:10.653Z,46.82
2018-09-05T07:27:38.444Z,46.54
2018-09-05T07:30:06.231Z,46.97
2018-09-05T07:32:33.888Z,46.01
2018-09-05T07:35:01.638Z,45.73
2018-09-05T07:37:29.331Z,44.43
2018-09-05T07:39:57.077Z,46.44
2018-09-05T07:42:24.790Z,48.19
2018-09-05T07:44:52.461Z,48.48
2018-09-05T07:47:20.118Z,49.82
2018-09-05T07:49:47.815Z,46.20
2018-09-05T07:52:15.531Z,44.21
2018-09-05T07:54:43.335Z,45.07
2018-09-05T07:57:11.098Z,44.31
2018-09-05T07:59:38.818Z,42.40
2018-09-05T08:02:06.512Z,43.30
2018-09-05T08:04:34.321Z,41.82
2018-09-05T08:07:02.046Z,43.74
2018-09-05T08:09:29.719Z,43.37
2018-09-05T08:11:57.453Z,44.08
2018-09-05T08:14:25.150Z,44.68
2018-09-05T08:16:52.847Z,46.80
2018-09-05T08:19:20.606Z,44.11
2018-09-05T08:21:48.277Z,43.22
2018-09-05T08:24:16.441Z,43.81
2018-09-05T08:26:44.145Z,44.36
2018-09-05T08:29:11.834Z,43.39
2018-09-05T08:31:39.544Z,44.83
2018-09-05T08:34:07.236Z,42.94
2018-09-05T08:36:35.114Z,42.62
2018-09-05T08:39:02.847Z,41.77
2018-09-05T08:41:30.707Z,40.39
2018-09-05T08:43:58.379Z,43.16
2018-09-05T08:46:26.048Z,41.60
2018-09-05T08:48:53.765Z,42.79
2018-09-05T08:51:21.450Z,40.98
2018-09-05T08:53:49.982Z,42.17
2018-09-05T08:56:17.783Z,42.86
2018-09-05T08:58:45.545Z,41.28
2018-09-05T09:01:13.213Z,41.34
2018-09-05T09:03:40.909Z,39.33
2018-09-05T09:06:08.717Z,38.20
2018-09-05T09:08:36.409Z,36.57
2018-09-05T09:11:04.134Z,36.19
2018-09-05T09:13:31.822Z,40.87
2018-09-05T09:15:59.525Z,41.41
2018-09-05T09:18:27.336Z,39.97
2018-09-05T09:20:55.041Z,38.32
2018-09-05T09:23:22.763Z,39.21
2018-09-05T09:25:50.512Z,37.55
2018-09-05T09:28:18.253Z,39.02
2018-09-05T09:30:45.986Z,42.29
2018-09-05T09:33:13.711Z,42.01
2018-09-05T09:35:41.485Z,43.04
2018-09-05T09:38:09.282Z,40.27
2018-09-05T09:40:37.117Z,41.55
2018-09-05T09:43:04.814Z,44.89
2018-09-05T09:45:32.672Z,41.86
2018-09-05T09:48:00.382Z,39.90
2018-09-05T09:50:28.203Z,39.99
2018-09-05T09:52:55.887Z,41.99
2018-09-05T09:55:23.641Z,41.12
2018-09-05T09:57:51.356Z,43.02
2018-09-05T10:00:25.233Z,40.90
2018-09-05T10:02:58.393Z,39.86
2018-09-05T10:05:31.565Z,43.20
2018-09-05T10:08:04.821Z,40.16
2018-09-05T10:10:38.248Z,38.56
2018-09-05T10:13:11.483Z,39.44
2018-09-05T10:15:44.922Z,43.39
2018-09-05T10:18:30.101Z,42.83
2018-09-05T10:20:58.290Z,39.89
2018-09-05T10:23:26.210Z,36.64
2018-09-05T10:25:54.004Z,35.82
2018-09-05T10:28:21.758Z,36.62
2018-09-05T10:30:49.669Z,41.86
2018-09-05T10:33:17.578Z,41.37
2018-09-05T10:35:45.277Z,41.31
2018-09-05T10:38:12.977Z,38.43
2018-09-05T10:40:40.720Z,37.44
2018-09-05T10:43:08.465Z,41.85
2018-09-05T10:45:36.164Z,41.41
2018-09-05T10:48:04.110Z,42.31
2018-09-05T10:50:31.964Z,39.96
2018-09-05T10:52:59.701Z,37.87
2018-09-05T10:55:27.435Z,37.79
2018-09-05T10:57:55.174Z,40.62
2018-09-05T11:00:22.850Z,39.87
2018-09-05T11:02:50.523Z,40.56
2018-09-05T11:05:18.258Z,37.48
2018-09-05T11:07:46.020Z,39.24
2018-09-05T11:10:13.743Z,38.96
2018-09-05T11:12:41.452Z,38.93
2018-09-05T11:15:09.135Z,36.18
2018-09-05T11:17:36.814Z,37.26
2018-09-05T11:20:05.103Z,38.81
2018-09-05T11:22:32.753Z,36.02
2018-09-05T11:25:00.469Z,34.92
2018-09-05T11:27:28.190Z,33.18
2018-09-05T11:29:55.872Z,35.50
2018-09-05T11:32:23.553Z,35.21
2018-09-05T11:34:51.237Z,36.85
2018-09-05T11:37:18.905Z,35.42
2018-09-05T11:39:46.571Z,33.54
2018-09-05T11:42:14.258Z,36.22
2018-09-05T11:44:41.921Z,39.33
2018-09-05T11:47:09.569Z,36.67
2018-09-05T11:49:37.306Z,37.22
2018-09-05T11:52:05.028Z,39.05
2018-09-05T11:54:32.697Z,38.98
2018-09-05T11:57:00.426Z,39.92
2018-09-05T11:59:28.101Z,39.47
2018-09-05T12:01:55.918Z,37.72
2018-09-05T12:04:23.631Z,36.32
2018-09-05T12:06:51.432Z,35.32
2018-09-05T12:09:19.169Z,36.26
2018-09-05T12:11:46.885Z,36.16
2018-09-05T12:14:14.594Z,35.63
2018-09-05T12:16:42.367Z,36.70
2018-09-05T12:19:10.083Z,37.04
2018-09-05T12:21:37.784Z,38.52
2018-09-05T12:24:05.457Z,37.38
2018-09-05T12:26:33.451Z,37.38
2018-09-05T12:29:01.840Z,38.44
2018-09-05T12:31:29.564Z,39.30
2018-09-05T12:33:57.288Z,37.22
2018-09-05T12:36:25.028Z,36.08
2018-09-05T12:38:52.797Z,35.45
2018-09-05T12:41:20.503Z,35.03
2018-09-05T12:43:48.168Z,35.69
2018-09-05T12:46:15.874Z,34.72
2018-09-05T12:48:43.602Z,34.16
2018-09-05T12:51:11.375Z,31.48
2018-09-05T12:53:39.116Z,31.93
2018-09-05T12:56:06.855Z,29.84
2018-09-05T12:58:34.573Z,30.71
2018-09-05T13:01:02.425Z,31.13
2018-09-05T13:03:30.243Z,32.33
2018-09-05T13:05:57.943Z,31.80
2018-09-05T13:08:25.659Z,33.81
2018-09-05T13:10:53.365Z,34.92
2018-09-05T13:13:21.071Z,34.79
2018-09-05T13:15:48.767Z,34.45
2018-09-05T13:18:16.489Z,32.90
2018-09-05T13:20:44.258Z,33.65
2018-09-05T13:23:11.933Z,33.08
2018-09-05T13:25:39.672Z,34.11
2018-09-05T13:28:07.410Z,34.39
2018-09-05T13:30:35.115Z,36.66
2018-09-05T13:33:02.908Z,37.65
2018-09-05T13:35:30.641Z,39.98
2018-09-05T13:37:58.369Z,40.67
2018-09-05T13:40:26.107Z,39.60
2018-09-05T13:42:53.885Z,40.04
2018-09-05T13:45:21.626Z,40.80
2018-09-05T13:47:49.401Z,42.13
2018-09-05T13:50:17.089Z,42.21
2018-09-05T13:52:44.757Z,44.28
2018-09-05T13:55:12.477Z,45.45
2018-09-05T13:57:40.245Z,46.70
2018-09-05T14:00:12.444Z,49.92
2018-09-05T14:02:40.171Z,53.55
2018-09-05T14:05:07.862Z,55.30
2018-09-05T14:07:35.594Z,56.90
2018-09-05T14:10:03.399Z,59.21
2018-09-05T14:12:31.082Z,60.61
2018-09-05T14:14:58.905Z,61.84
2018-09-05T14:17:26.588Z,71.43
2018-09-05T14:19:54.302Z,67.50
2018-09-05T14:22:21.971Z,67.32
2018-09-05T14:24:49.694Z,74.23
2018-09-05T14:27:17.361Z,73.21
2018-09-05T14:29:45.125Z,75.77
2018-09-05T14:32:12.894Z,77.33
2018-09-05T14:34:40.625Z,75.91
2018-09-05T14:37:08.344Z,76.40
2018-09-05T14:39:36.053Z,75.74
2018-09-05T14:42:03.763Z,74.99
2018-09-05T14:44:31.508Z,75.18
2018-09-05T14:46:59.241Z,77.87
2018-09-05T14:49:26.908Z,76.23
2018-09-05T14:51:54.678Z,75.44
2018-09-05T14:54:22.419Z,74.05
2018-09-05T14:56:50.153Z,70.19
2018-09-05T14:59:17.925Z,75.14
2018-09-05T15:01:45.649Z,73.35
2018-09-05T15:04:13.466Z,72.93
2018-09-05T15:06:41.202Z,72.63
2018-09-05T15:09:11.069Z,72.89
2018-09-05T15:11:38.805Z,77.04
2018-09-05T15:14:07.005Z,76.37
2018-09-05T15:16:34.820Z,80.60
2018-09-05T15:19:02.558Z,81.00
2018-09-05T15:21:30.325Z,78.90
2018-09-05T15:23:58.028Z,80.56
2018-09-05T15:26:25.763Z,79.89
2018-09-05T15:28:53.635Z,80.18
2018-09-05T15:31:21.538Z,76.86
2018-09-05T15:33:49.272Z,78.30
2018-09-05T15:36:17.054Z,77.44
2018-09-05T15:38:44.776Z,77.77
2018-09-05T15:41:12.465Z,78.91
2018-09-05T15:43:40.196Z,79.00
2018-09-05T15:46:07.877Z,78.09
2018-09-05T15:48:35.557Z,81.49
2018-09-05T15:51:03.322Z,81.16
2018-09-05T15:53:30.997Z,81.62
2018-09-05T15:55:58.673Z,81.61
2018-09-05T15:58:26.660Z,81.47
2018-09-05T16:00:54.386Z,80.35
2018-09-05T16:03:22.114Z,79.51
2018-09-05T16:05:49.833Z,78.92
2018-09-05T16:08:17.580Z,79.58
2018-09-05T16:10:45.290Z,78.46
2018-09-05T16:13:13.005Z,78.23
2018-09-05T16:15:40.848Z,78.05
2018-09-05T16:18:08.474Z,76.06
2018-09-05T16:20:36.189Z,76.45
2018-09-05T16:23:03.921Z,76.13
2018-09-05T16:25:31.622Z,76.12
2018-09-05T16:27:59.344Z,75.45
2018-09-05T16:30:27.053Z,74.99
2018-09-05T16:32:54.710Z,74.71
2018-09-05T16:35:22.443Z,75.50
2018-09-05T16:37:50.137Z,76.24
2018-09-05T16:40:17.833Z,73.76
2018-09-05T16:42:45.558Z,74.26
2018-09-05T16:45:13.330Z,77.60
2018-09-05T16:47:41.126Z,80.26
2018-09-05T16:50:08.901Z,81.17
2018-09-05T16:52:36.629Z,82.22
2018-09-05T16:55:04.382Z,81.95
2018-09-05T16:57:32.109Z,82.00
2018-09-05T16:59:59.860Z,81.40
2018-09-05T17:02:27.581Z,82.22
2018-09-05T17:04:55.282Z,81.37
2018-09-05T17:07:22.998Z,80.08
2018-09-05T17:09:50.722Z,80.63
2018-09-05T17:12:18.450Z,78.95
2018-09-05T17:14:46.127Z,78.09
2018-09-05T17:17:13.852Z,78.48
2018-09-05T17:19:41.640Z,79.19
2018-09-05T17:22:09.358Z,79.45
2018-09-05T17:24:37.110Z,78.54
2018-09-05T17:27:04.840Z,80.69
2018-09-05T17:29:32.580Z,80.47
2018-09-05T17:32:00.414Z,80.15
2018-09-05T17:34:28.256Z,78.59
2018-09-05T17:36:55.997Z,77.54
2018-09-05T17:39:23.757Z,77.59
2018-09-05T17:41:51.552Z,77.17
2018-09-05T17:44:19.238Z,78.16
2018-09-05T17:46:46.956Z,79.36
2018-09-05T17:49:14.689Z,81.13
2018-09-05T17:51:42.389Z,80.40
2018-09-05T17:54:10.126Z,80.98
2018-09-05T17:56:37.919Z,81.42
2018-09-05T17:59:05.700Z,81.76
2018-09-05T18:01:33.559Z,81.36
2018-09-05T18:04:01.218Z,81.27
2018-09-05T18:06:28.934Z,81.26
2018-09-05T18:08:56.969Z,80.98
2018-09-05T18:11:24.754Z,80.69
2018-09-05T18:13:52.484Z,79.80
2018-09-05T18:16:20.202Z,79.92
2018-09-05T18:18:48.010Z,80.21
2018-09-05T18:21:15.696Z,80.15
2018-09-05T18:23:43.407Z,80.95
2018-09-05T18:26:11.164Z,80.63
2018-09-05T18:28:38.890Z,80.02
2018-09-05T18:31:06.640Z,80.82
2018-09-05T18:33:34.403Z,79.57
2018-09-05T18:36:02.131Z,78.42
2018-09-05T18:38:30.699Z,78.96
2018-09-05T18:40:58.421Z,77.99
2018-09-05T18:43:26.100Z,79.34
2018-09-05T18:45:53.797Z,78.83
2018-09-05T18:48:21.582Z,78.54
2018-09-05T18:50:49.306Z,77.63
2018-09-05T18:53:17.029Z,78.31
2018-09-05T18:55:45.324Z,77.02
2018-09-05T18:58:13.059Z,75.77
2018-09-05T19:00:40.814Z,75.62
2018-09-05T19:03:09.457Z,76.01
2018-09-05T19:05:37.176Z,75.69
2018-09-05T19:08:05.325Z,76.52
2018-09-05T19:10:33.083Z,76.98
2018-09-05T19:13:00.778Z,77.44
2018-09-05T19:15:28.465Z,76.88
2018-09-05T19:17:56.232Z,77.26
2018-09-05T19:20:24.177Z,77.15
2018-09-05T19:22:51.960Z,76.91
2018-09-05T19:25:19.679Z,77.33
2018-09-05T19:27:47.429Z,77.62
2018-09-05T19:30:15.213Z,76.35
2018-09-05T19:32:42.970Z,76.95
2018-09-05T19:35:17.240Z,77.13
2018-09-05T19:37:45.153Z,75.86
2018-09-05T19:40:12.854Z,77.07
2018-09-05T19:42:40.562Z,76.97
2018-09-05T19:45:08.620Z,76.90
2018-09-05T19:47:36.420Z,76.12
2018-09-05T19:50:05.082Z,74.96
2018-09-05T19:52:32.830Z,75.18
2018-09-05T19:55:00.526Z,73.37
2018-09-05T19:57:28.217Z,73.66
2018-09-05T19:59:55.964Z,71.83
2018-09-05T20:02:23.933Z,69.86
2018-09-05T20:04:51.802Z,70.43
2018-09-05T20:07:19.543Z,68.77
2018-09-05T20:09:47.352Z,70.54
2018-09-05T20:12:15.063Z,69.68
2018-09-05T20:14:42.778Z,71.12
2018-09-05T20:17:10.505Z,71.56
2018-09-05T20:19:38.535Z,71.34
2018-09-05T20:22:08.520Z,68.88
2018-09-05T20:24:36.370Z,72.59
2018-09-05T20:27:04.087Z,70.69
2018-09-05T20:29:31.840Z,71.33
2018-09-05T20:31:59.558Z,71.84
2018-09-05T20:34:27.293Z,71.36
2018-09-05T20:36:55.116Z,71.74
2018-09-05T20:39:22.828Z,73.41
2018-09-05T20:41:50.498Z,73.70
2018-09-05T20:44:18.204Z,74.67
2018-09-05T20:46:45.926Z,75.60
2018-09-05T20:49:13.565Z,75.93
2018-09-05T20:51:41.276Z,74.89
2018-09-05T20:54:09.034Z,75.33
2018-09-05T20:56:36.758Z,74.95
2018-09-05T20:59:04.788Z,74.93
2018-09-05T21:01:32.481Z,76.54
2018-09-05T21:04:00.166Z,76.22
2018-09-05T21:06:27.943Z,74.71
2018-09-05T21:08:55.677Z,74.65
2018-09-05T21:11:23.422Z,74.66
2018-09-05T21:13:51.183Z,75.93
2018-09-05T21:16:18.964Z,77.02
2018-09-05T21:18:46.688Z,76.69
2018-09-05T21:21:14.406Z,76.89
2018-09-05T21:23:42.109Z,76.27
2018-09-05T21:26:09.845Z,75.84
2018-09-05T21:28:37.625Z,77.05
2018-09-05T21:31:05.429Z,76.48
2018-09-05T21:33:33.150Z,77.24
2018-09-05T21:36:00.867Z,76.59
2018-09-05T21:38:28.553Z,76.53
2018-09-05T21:40:57.093Z,76.65
2018-09-05T21:43:24.896Z,76.69
2018-09-05T21:45:52.666Z,76.54
2018-09-05T21:48:20.468Z,77.06
2018-09-05T21:50:48.148Z,77.59
2018-09-05T21:53:15.840Z,78.20
2018-09-05T21:55:43.538Z,77.71
2018-09-05T21:58:11.208Z,78.21
2018-09-05T22:00:38.949Z,78.16
2018-09-05T22:03:06.675Z,77.60
2018-09-05T22:05:34.403Z,77.73
2018-09-05T22:08:02.087Z,76.67
2018-09-05T22:10:29.772Z,76.34
2018-09-05T22:12:57.549Z,75.58
2018-09-05T22:15:25.223Z,74.86
2018-09-05T22:17:52.946Z,74.91
2018-09-05T22:20:20.646Z,75.11
2018-09-05T22:22:48.347Z,75.42
2018-09-05T22:25:16.048Z,74.51
2018-09-05T22:27:43.753Z,74.73
2018-09-05T22:30:11.410Z,73.39
2018-09-05T22:32:39.064Z,74.59
2018-09-05T22:35:06.820Z,73.32
2018-09-05T22:37:34.477Z,73.18
2018-09-05T22:40:02.169Z,73.53
2018-09-05T22:42:29.863Z,73.05
2018-09-05T22:45:08.726Z,72.65
2018-09-05T22:47:51.069Z,73.02
2018-09-05T22:50:40.366Z,73.11
2018-09-05T22:53:28.499Z,73.75
2018-09-05T22:57:43.165Z,73.45
2018-09-05T23:00:25.520Z,73.29
2018-09-05T23:03:02.166Z,73.81
2018-09-05T23:05:41.679Z,73.50
2018-09-05T23:08:44.646Z,72.87
2018-09-05T23:11:23.547Z,72.37
2018-09-05T23:15:04.143Z,72.86
2018-09-05T23:17:43.103Z,72.79
2018-09-05T23:20:30.568Z,72.30
2018-09-05T23:23:09.264Z,72.10
2018-09-05T23:25:36.978Z,72.59
2018-09-05T23:28:04.995Z,71.84
2018-09-05T23:30:32.695Z,72.08
2018-09-05T23:33:00.380Z,71.92
2018-09-05T23:35:28.081Z,71.91
2018-09-05T23:37:55.812Z,71.48
2018-09-05T23:40:23.496Z,70.08
2018-09-05T23:42:51.166Z,70.54
2018-09-05T23:45:18.876Z,70.55
2018-09-05T23:47:46.548Z,69.50
2018-09-05T23:50:14.254Z,69.54
2018-09-05T23:52:41.963Z,69.49
2018-09-05T23:55:09.665Z,70.24
2018-09-05T23:57:37.372Z,69.57
